New London Township, Pennsylvania
Current Conditions -  °F | °C
As of 5:55 PM on Thursday 18 Dec 2014 (Local Time) from KMQS Reporting Station
Few Clouds Few Clouds  
Wind Chill: 24°   Ceiling: Unl
Heat Index: 34°   Visibility: 10mi
Dew Point: 28°   Wind: 16mph
Humidity: 81%   Direction: 310°NW
Pressure: 30.02"   Gusts: 21mph
Location:  39.7848°N, 75.891°W
Report Text: KMQS 182255Z AUTO 31014G18KT 10SM FEW025 01/M02 A3002 RMK AO2
Loading
Personal Weather Stations






























Interactive Weather Map New forecast layout! Learn more

10-Day Weather Forecast

Advertisements
Track Severe Weather on mobile